Airfield :
LOGIN :

Register | Disclaimer

   EN    FR    IT 

 










Legend :    VFR   Marginal VFR   IFR   Intensive IFR   Very Intensive IFR
Visi :
Ceiling :
>= 8 km
>= 3000ft
5 to 8 km
1000 to 3000 ft
1500m to 5 km
500 to 1000 ft
800 to 1500m
200 to 500 ft
< 800m
< 200 ft
Symbols :   Thunderstorms  Fog  Heavy snow  Heavy precipitations  Wind > 20 kt
SIGMETs :     Misc.  Thunderstorms  Icing  Turbulence  Mountain Waves  Volcanic Ashes







- Airport Elevation : 1411 ft
- IATA code : SZG


LOWS - Salzburg

CURRENT METAR :
  • 231750Z 28003KT 210V310 CAVOK 12/04 Q1025 NOSIG

EXPIRED METARs :
  • 231720Z 28004KT 250V310 CAVOK 15/03 Q1025 NOSIG
  • 231650Z 33003KT CAVOK 17/01 Q1025 NOSIG
  • 231620Z 33003KT CAVOK 18/03 Q1025 NOSIG
  • 231550Z 35005KT CAVOK 18/03 Q1025 NOSIG
  • 231520Z 35004KT 310V060 CAVOK 18/04 Q1025 NOSIG

TAF TAF LOWS
Valid from the 23 at 18:00 until the 24 at 18:00 UTC


231715Z 2318/2418 15005KT CAVOK TX18/2414Z TN04/2403Z
BECMG 2409/2411 34006KT
No reported NOTAMs for that airfield.



MET'MAP, your aeronautical weather chart ! - Copyright ORBIFLY December 2007 - Disclaimer

ORBIFLY MET'MAP TEAM :

Programming & Development : Alexandra Zaïnal
Concept & Development : Baudouin d'Aumeries
Co-Development & Prog : Marc-Olivier Méhu
Technical & hardware support : Manuel Goepfert

Contact : metmap@orbifly.com




SOURCES & CREDITS :

   NOAA